createdAt,value
2023-04-09T00:02:33.268Z,9.90
2023-04-09T00:05:10.507Z,9.80
2023-04-09T00:07:46.604Z,9.80
2023-04-09T00:10:23.106Z,9.80
2023-04-09T00:13:00.654Z,9.80
2023-04-09T00:15:35.378Z,9.70
2023-04-09T00:18:16.050Z,9.70
2023-04-09T00:21:12.630Z,9.70
2023-04-09T00:23:50.983Z,9.70
2023-04-09T00:26:31.241Z,9.60
2023-04-09T00:29:07.183Z,9.70
2023-04-09T00:31:48.677Z,9.60
2023-04-09T00:34:35.928Z,9.60
2023-04-09T00:37:19.880Z,9.60
2023-04-09T00:40:01.446Z,9.60
2023-04-09T00:42:39.827Z,9.60
2023-04-09T00:45:18.063Z,9.60
2023-04-09T00:47:59.817Z,9.60
2023-04-09T00:50:40.466Z,9.60
2023-04-09T00:53:18.542Z,9.50
2023-04-09T00:55:53.996Z,9.60
2023-04-09T00:58:31.271Z,9.60
2023-04-09T01:01:14.708Z,9.60
2023-04-09T01:03:48.856Z,9.60
2023-04-09T01:06:31.454Z,9.60
2023-04-09T01:09:13.647Z,9.60
2023-04-09T01:12:04.284Z,9.60
2023-04-09T01:14:47.262Z,9.60
2023-04-09T01:17:29.306Z,9.60
2023-04-09T01:20:11.567Z,9.60
2023-04-09T01:22:54.418Z,9.60
2023-04-09T01:25:45.474Z,9.50
2023-04-09T01:28:25.174Z,9.40
2023-04-09T01:31:05.452Z,9.50
2023-04-09T01:33:40.828Z,9.40
2023-04-09T01:36:20.611Z,9.40
2023-04-09T01:39:08.029Z,9.30
2023-04-09T01:41:44.931Z,9.30
2023-04-09T01:44:29.367Z,9.30
2023-04-09T01:47:05.030Z,9.20
2023-04-09T01:49:43.249Z,9.20
2023-04-09T01:52:19.338Z,9.10
2023-04-09T01:54:58.059Z,9.10
2023-04-09T01:57:38.679Z,9.00
2023-04-09T02:00:24.828Z,9.00
2023-04-09T02:03:12.502Z,9.00
2023-04-09T02:05:59.026Z,8.90
2023-04-09T02:08:38.571Z,8.90
2023-04-09T02:14:10.178Z,8.80
2023-04-09T02:16:49.761Z,8.80
2023-04-09T02:19:24.021Z,8.70
2023-04-09T02:22:05.530Z,8.70
2023-04-09T02:24:44.748Z,8.70
2023-04-09T02:27:31.864Z,8.70
2023-04-09T02:30:13.119Z,8.70
2023-04-09T02:32:54.452Z,8.60
2023-04-09T02:35:33.146Z,8.70
2023-04-09T02:38:11.301Z,8.60
2023-04-09T02:40:45.149Z,8.60
2023-04-09T02:43:19.658Z,8.70
2023-04-09T02:45:56.442Z,8.60
2023-04-09T02:48:43.098Z,8.60
2023-04-09T02:51:19.895Z,8.60
2023-04-09T02:53:59.660Z,8.60
2023-04-09T02:56:33.349Z,8.60
2023-04-09T02:59:10.829Z,8.60
2023-04-09T03:01:49.615Z,8.60
2023-04-09T03:04:36.767Z,8.60
2023-04-09T03:07:14.448Z,8.60
2023-04-09T03:09:51.502Z,8.50
2023-04-09T03:12:30.786Z,8.50
2023-04-09T03:15:13.864Z,8.50
2023-04-09T03:17:50.410Z,8.50
2023-04-09T03:20:36.808Z,8.50
2023-04-09T03:23:17.158Z,8.50
2023-04-09T03:25:56.532Z,8.50
2023-04-09T03:28:37.329Z,8.50
2023-04-09T03:31:27.515Z,8.50
2023-04-09T03:34:07.344Z,8.50
2023-04-09T03:37:01.406Z,8.50
2023-04-09T03:39:41.642Z,8.50
2023-04-09T03:42:30.431Z,8.50
2023-04-09T03:45:11.745Z,8.50
2023-04-09T03:47:57.864Z,8.50
2023-04-09T03:50:45.757Z,8.50
2023-04-09T03:53:32.702Z,8.60
2023-04-09T03:56:15.184Z,8.60
2023-04-09T03:59:03.347Z,8.60
2023-04-09T04:02:03.081Z,8.60
2023-04-09T04:04:55.591Z,8.60
2023-04-09T04:07:43.988Z,8.60
2023-04-09T04:10:26.230Z,8.60
2023-04-09T04:13:01.307Z,8.60
2023-04-09T04:15:44.691Z,8.60
2023-04-09T04:18:26.408Z,8.70
2023-04-09T04:21:10.646Z,8.70
2023-04-09T04:23:51.475Z,8.70
2023-04-09T04:26:44.474Z,8.70
2023-04-09T04:29:29.981Z,8.70
2023-04-09T04:32:08.681Z,8.70
2023-04-09T04:34:44.984Z,8.80
2023-04-09T04:37:39.409Z,8.80
2023-04-09T04:40:21.949Z,8.80
2023-04-09T04:43:06.298Z,8.80
2023-04-09T04:45:44.042Z,8.80
2023-04-09T04:48:21.495Z,8.80
2023-04-09T04:51:03.345Z,8.80
2023-04-09T04:53:50.951Z,8.80
2023-04-09T04:56:28.424Z,8.80
2023-04-09T04:59:29.965Z,8.90
2023-04-09T05:02:16.688Z,8.90
2023-04-09T05:05:31.918Z,9.00
2023-04-09T05:08:16.212Z,9.00
2023-04-09T05:11:13.151Z,9.10
2023-04-09T05:13:54.543Z,9.10
2023-04-09T05:16:40.985Z,9.10
2023-04-09T05:19:17.996Z,9.20
2023-04-09T05:21:57.779Z,9.20
2023-04-09T05:24:39.500Z,9.30
2023-04-09T05:27:16.960Z,9.30
2023-04-09T05:29:52.848Z,9.30
2023-04-09T05:32:39.389Z,9.40
2023-04-09T05:35:22.084Z,9.40
2023-04-09T05:37:58.241Z,9.40
2023-04-09T05:40:37.931Z,9.50
2023-04-09T05:43:31.276Z,9.50
2023-04-09T05:46:16.030Z,9.60
2023-04-09T05:48:54.601Z,9.60
2023-04-09T05:51:37.306Z,9.60
2023-04-09T05:54:23.052Z,9.70
2023-04-09T05:56:59.508Z,9.70
2023-04-09T05:59:37.176Z,9.80
2023-04-09T06:02:31.562Z,9.80
2023-04-09T06:05:13.093Z,9.80
2023-04-09T06:07:50.171Z,9.80
2023-04-09T06:10:27.021Z,9.90
2023-04-09T06:13:12.801Z,9.90
2023-04-09T06:15:52.320Z,10.00
2023-04-09T06:18:37.257Z,10.10
2023-04-09T06:21:16.024Z,10.20
2023-04-09T06:23:54.692Z,10.30
2023-04-09T06:26:33.345Z,10.30
2023-04-09T06:29:09.188Z,10.40
2023-04-09T06:31:44.580Z,10.40
2023-04-09T06:34:30.075Z,10.50
2023-04-09T06:37:08.577Z,10.60
2023-04-09T06:40:00.961Z,10.70
2023-04-09T06:42:37.591Z,10.70
2023-04-09T06:45:27.515Z,10.80
2023-04-09T06:48:07.265Z,10.90
2023-04-09T06:50:47.010Z,10.90
2023-04-09T06:53:28.839Z,11.00
2023-04-09T06:56:11.669Z,11.00
2023-04-09T06:58:52.412Z,11.10
2023-04-09T07:01:44.275Z,11.20
2023-04-09T07:04:20.597Z,11.20
2023-04-09T07:07:00.917Z,11.30
2023-04-09T07:09:46.962Z,11.40
2023-04-09T07:12:37.838Z,11.50
2023-04-09T07:15:19.981Z,11.50
2023-04-09T07:17:58.378Z,11.60
2023-04-09T07:20:39.839Z,11.70
2023-04-09T07:23:20.559Z,11.70
2023-04-09T07:26:04.219Z,11.70
2023-04-09T07:28:48.498Z,11.80
2023-04-09T07:31:30.670Z,12.00
2023-04-09T07:34:07.826Z,12.10
2023-04-09T07:36:52.227Z,12.20
2023-04-09T07:39:30.706Z,12.20
2023-04-09T07:42:13.346Z,12.30
2023-04-09T07:44:48.733Z,12.40
2023-04-09T07:47:40.049Z,12.50
2023-04-09T07:50:17.732Z,12.50
2023-04-09T07:52:59.863Z,12.60
2023-04-09T07:55:34.021Z,12.70
2023-04-09T07:58:15.434Z,12.70
2023-04-09T08:00:56.532Z,12.80
2023-04-09T08:03:44.029Z,12.80
2023-04-09T08:06:22.900Z,13.00
2023-04-09T08:09:08.283Z,13.00
2023-04-09T08:11:42.496Z,13.10
2023-04-09T08:14:28.683Z,13.20
2023-04-09T08:17:06.533Z,13.30
2023-04-09T08:20:00.056Z,13.30
2023-04-09T08:22:41.663Z,13.30
2023-04-09T08:25:35.202Z,13.40
2023-04-09T08:28:19.925Z,13.50
2023-04-09T08:31:02.954Z,13.70
2023-04-09T08:33:41.677Z,13.70
2023-04-09T08:36:28.373Z,13.80
2023-04-09T08:39:05.396Z,13.90
2023-04-09T08:41:43.115Z,13.90
2023-04-09T08:44:25.848Z,13.90
2023-04-09T08:47:07.828Z,14.00
2023-04-09T08:49:43.600Z,14.00
2023-04-09T08:52:25.106Z,14.00
2023-04-09T08:55:01.186Z,14.10
2023-04-09T08:57:38.096Z,14.10
2023-04-09T09:00:26.628Z,14.10
2023-04-09T09:03:19.856Z,14.00
2023-04-09T09:05:57.917Z,14.10
2023-04-09T09:08:50.307Z,14.00
2023-04-09T09:11:31.900Z,14.10
2023-04-09T09:14:09.377Z,14.10
2023-04-09T09:16:44.681Z,14.10
2023-04-09T09:19:37.467Z,14.20
2023-04-09T09:22:22.098Z,14.20
2023-04-09T09:25:11.973Z,14.30
2023-04-09T09:27:58.303Z,14.40
2023-04-09T09:30:39.482Z,14.50
2023-04-09T09:33:22.538Z,14.50
2023-04-09T09:35:59.101Z,14.60
2023-04-09T09:38:37.374Z,14.70
2023-04-09T09:41:25.766Z,14.70
2023-04-09T09:44:02.020Z,14.80
2023-04-09T09:46:40.289Z,14.80
2023-04-09T09:49:26.728Z,14.90
2023-04-09T09:52:09.395Z,14.90
2023-04-09T09:54:58.553Z,15.00
2023-04-09T09:57:46.761Z,15.20
2023-04-09T10:00:28.633Z,15.20
2023-04-09T10:03:18.964Z,15.20
2023-04-09T10:05:55.532Z,15.30
2023-04-09T10:55:37.970Z,15.70
2023-04-09T10:58:42.721Z,15.50
2023-04-09T11:01:37.871Z,15.50
2023-04-09T11:04:28.227Z,15.50
2023-04-09T11:07:05.594Z,15.60
2023-04-09T11:09:44.036Z,15.60
2023-04-09T11:12:21.296Z,15.60
2023-04-09T11:15:01.211Z,15.60
2023-04-09T11:17:42.032Z,15.60
2023-04-09T11:20:18.076Z,15.60
2023-04-09T11:23:05.084Z,15.50
2023-04-09T11:25:51.433Z,15.60
2023-04-09T11:28:29.189Z,15.60
2023-04-09T11:31:13.799Z,15.70
2023-04-09T11:33:56.250Z,15.70
2023-04-09T11:36:31.359Z,15.80
2023-04-09T11:39:07.845Z,15.90
2023-04-09T11:41:42.788Z,16.00
2023-04-09T11:44:19.470Z,16.10
2023-04-09T11:46:58.378Z,16.00
2023-04-09T11:49:31.946Z,16.10
2023-04-09T11:52:09.811Z,16.10
2023-04-09T11:54:42.559Z,16.10
2023-04-09T11:57:17.086Z,16.10
2023-04-09T11:59:50.061Z,16.10
2023-04-09T12:02:27.217Z,16.00
2023-04-09T12:05:10.514Z,16.10
2023-04-09T12:07:56.323Z,16.10
2023-04-09T12:10:36.954Z,16.10
2023-04-09T12:13:11.748Z,16.10
2023-04-09T12:15:47.204Z,16.10
2023-04-09T12:18:29.460Z,16.10
2023-04-09T12:21:03.124Z,16.20
2023-04-09T12:23:43.420Z,16.20
2023-04-09T12:26:17.507Z,16.20
2023-04-09T12:28:52.755Z,16.20
2023-04-09T12:31:25.132Z,16.20
2023-04-09T12:33:59.910Z,16.20
2023-04-09T12:36:40.043Z,16.20
2023-04-09T12:39:15.646Z,16.20
2023-04-09T12:41:52.319Z,16.10
2023-04-09T12:44:27.112Z,16.10
2023-04-09T12:47:02.935Z,16.10
2023-04-09T12:49:42.215Z,16.00
2023-04-09T12:52:16.538Z,16.10
2023-04-09T12:54:58.220Z,16.10
2023-04-09T12:57:32.659Z,16.10
2023-04-09T13:00:08.193Z,16.20
2023-04-09T13:02:42.456Z,16.30
2023-04-09T13:05:19.855Z,16.40
2023-04-09T13:07:57.458Z,16.50
2023-04-09T13:10:31.456Z,16.60
2023-04-09T13:13:13.043Z,16.70
2023-04-09T13:15:48.753Z,16.80
2023-04-09T13:18:23.814Z,16.90
2023-04-09T13:21:03.645Z,17.00
2023-04-09T13:23:37.565Z,17.10
2023-04-09T13:26:11.272Z,17.20
2023-04-09T13:28:46.308Z,17.20
2023-04-09T13:31:19.696Z,17.20
2023-04-09T13:33:54.625Z,17.20
2023-04-09T13:36:30.069Z,17.20
2023-04-09T13:39:10.100Z,17.30
2023-04-09T13:41:44.242Z,17.30
2023-04-09T13:44:17.165Z,17.40
2023-04-09T13:46:55.251Z,17.40
2023-04-09T13:49:31.122Z,17.50
2023-04-09T13:52:11.428Z,17.60
2023-04-09T13:54:47.191Z,17.70
2023-04-09T13:57:20.304Z,17.80
2023-04-09T13:59:55.518Z,17.80
2023-04-09T14:02:30.686Z,17.80
2023-04-09T14:05:04.786Z,17.60
2023-04-09T14:07:42.918Z,17.30
2023-04-09T14:10:17.046Z,17.00
2023-04-09T14:12:51.325Z,16.70
2023-04-09T14:15:24.044Z,16.40
2023-04-09T14:18:00.739Z,16.00
2023-04-09T14:20:37.050Z,15.70
2023-04-09T14:23:16.879Z,15.50
2023-04-09T14:25:50.401Z,15.30
2023-04-09T14:28:22.850Z,15.10
2023-04-09T14:30:57.855Z,15.00
2023-04-09T14:33:36.079Z,14.80
2023-04-09T14:36:12.152Z,14.80
2023-04-09T14:38:49.889Z,14.70
2023-04-09T14:41:25.909Z,14.60
2023-04-09T14:44:03.353Z,14.40
2023-04-09T14:46:37.359Z,14.20
2023-04-09T14:49:11.464Z,14.00
2023-04-09T14:51:47.105Z,13.80
2023-04-09T14:54:28.621Z,13.60
2023-04-09T14:57:08.092Z,13.50
2023-04-09T14:59:43.701Z,13.40
2023-04-09T15:02:21.661Z,13.30
2023-04-09T15:04:58.675Z,13.20
2023-04-09T15:07:37.068Z,13.10
2023-04-09T15:10:13.970Z,13.10
2023-04-09T15:15:45.891Z,13.00
2023-04-09T15:18:20.001Z,12.90
2023-04-09T15:20:54.927Z,12.90
2023-04-09T15:23:35.299Z,12.80
2023-04-09T15:26:12.653Z,12.80
2023-04-09T15:28:46.870Z,12.80
2023-04-09T15:31:22.827Z,12.70
2023-04-09T15:34:02.445Z,12.70
2023-04-09T15:36:38.816Z,12.60
2023-04-09T15:39:11.819Z,12.60
2023-04-09T15:41:52.899Z,12.60
2023-04-09T15:44:26.848Z,12.60
2023-04-09T15:47:00.242Z,12.60
2023-04-09T15:49:37.436Z,12.50
2023-04-09T15:52:14.376Z,12.50
2023-04-09T15:54:52.019Z,12.40
2023-04-09T15:57:29.976Z,12.20
2023-04-09T16:00:04.760Z,12.20
2023-04-09T16:02:51.451Z,12.10
2023-04-09T16:05:27.792Z,12.00
2023-04-09T16:08:02.909Z,12.00
2023-04-09T16:10:36.820Z,11.90
2023-04-09T16:13:14.047Z,11.90
2023-04-09T16:15:50.085Z,11.80
2023-04-09T16:18:28.060Z,11.90
2023-04-09T16:21:05.690Z,11.80
2023-04-09T16:23:43.894Z,11.80
2023-04-09T16:26:17.528Z,11.70
2023-04-09T16:28:54.590Z,11.70
2023-04-09T16:31:33.654Z,11.70
2023-04-09T16:34:10.483Z,11.70
2023-04-09T16:36:46.014Z,11.50
2023-04-09T16:39:24.570Z,11.50
2023-04-09T16:41:57.462Z,11.40
2023-04-09T16:47:32.465Z,11.50
2023-04-09T16:50:05.365Z,11.50
2023-04-09T16:52:39.610Z,11.50
2023-04-09T16:55:15.662Z,11.50
2023-04-09T16:57:48.382Z,11.50
2023-04-09T17:00:26.453Z,11.50
2023-04-09T17:03:01.162Z,11.50
2023-04-09T17:05:35.769Z,11.50
2023-04-09T17:08:12.547Z,11.50
2023-04-09T17:10:48.256Z,11.50
2023-04-09T17:13:22.317Z,11.50
2023-04-09T17:15:56.509Z,11.40
2023-04-09T17:18:34.487Z,11.50
2023-04-09T17:21:11.538Z,11.40
2023-04-09T17:23:46.220Z,11.40
2023-04-09T17:26:22.409Z,11.40
2023-04-09T17:28:55.789Z,11.40
2023-04-09T17:31:31.779Z,11.40
2023-04-09T17:34:06.979Z,11.40
2023-04-09T17:36:45.210Z,11.50
2023-04-09T17:39:18.034Z,11.40
2023-04-09T17:41:57.175Z,11.40
2023-04-09T17:44:34.317Z,11.40
2023-04-09T17:47:08.124Z,11.40
2023-04-09T17:49:45.649Z,11.30
2023-04-09T17:52:18.773Z,11.30
2023-04-09T17:54:54.120Z,11.30
2023-04-09T17:57:27.143Z,11.30
2023-04-09T17:59:59.707Z,11.30
2023-04-09T18:02:33.184Z,11.30
2023-04-09T18:05:11.492Z,11.30
2023-04-09T18:07:46.347Z,11.30
2023-04-09T18:10:19.251Z,11.20
2023-04-09T18:12:52.340Z,11.30
2023-04-09T18:15:25.345Z,11.30
2023-04-09T18:18:02.464Z,11.20
2023-04-09T18:20:38.370Z,11.20
2023-04-09T18:23:12.467Z,11.20
2023-04-09T18:25:46.903Z,11.30
2023-04-09T18:28:19.913Z,11.20
2023-04-09T18:30:54.777Z,11.20
2023-04-09T18:33:31.396Z,11.30
2023-04-09T18:36:08.472Z,11.30
2023-04-09T18:38:41.624Z,11.30
2023-04-09T18:41:18.747Z,11.30
2023-04-09T18:43:56.310Z,11.30
2023-04-09T18:46:28.488Z,11.30
2023-04-09T18:49:04.804Z,11.30
2023-04-09T18:51:43.821Z,11.30
2023-04-09T18:54:17.310Z,11.30
2023-04-09T18:56:53.414Z,11.30
2023-04-09T18:59:26.317Z,11.30
2023-04-09T19:02:00.478Z,11.30
2023-04-09T19:04:41.773Z,11.30
2023-04-09T19:07:17.190Z,11.20
2023-04-09T19:09:55.995Z,11.20
2023-04-09T19:12:28.447Z,11.20
2023-04-09T19:15:02.487Z,11.20
2023-04-09T19:17:35.771Z,11.20
2023-04-09T19:20:09.925Z,11.10
2023-04-09T19:22:50.906Z,11.10
2023-04-09T19:25:26.758Z,11.10
2023-04-09T19:28:04.840Z,11.10
2023-04-09T19:30:38.008Z,11.00
2023-04-09T19:33:15.852Z,11.00
2023-04-09T19:35:48.390Z,11.00
2023-04-09T19:38:30.376Z,11.00
2023-04-09T19:41:03.674Z,11.00
2023-04-09T19:43:39.478Z,10.90
2023-04-09T19:46:17.775Z,10.90
2023-04-09T19:48:51.959Z,10.80
2023-04-09T19:51:38.361Z,10.80
2023-04-09T19:54:15.736Z,10.70
2023-04-09T19:56:49.232Z,10.70
2023-04-09T19:59:26.708Z,10.60
2023-04-09T20:02:01.248Z,10.60
2023-04-09T20:04:37.436Z,10.60
2023-04-09T20:07:13.419Z,10.50
2023-04-09T20:09:50.628Z,10.50
2023-04-09T20:12:29.421Z,10.50
2023-04-09T20:15:03.404Z,10.30
2023-04-09T20:17:38.213Z,10.30
2023-04-09T20:20:13.822Z,10.20
2023-04-09T20:22:56.473Z,10.10
2023-04-09T20:25:35.705Z,10.10
2023-04-09T20:28:10.590Z,10.10
2023-04-09T20:30:43.797Z,10.10
2023-04-09T20:33:17.151Z,10.10
2023-04-09T20:35:51.657Z,10.00
2023-04-09T20:38:26.149Z,10.00
2023-04-09T20:41:03.714Z,9.90
2023-04-09T20:43:39.242Z,9.90
2023-04-09T20:46:11.410Z,9.80
2023-04-09T20:48:44.958Z,9.80
2023-04-09T20:51:19.097Z,9.80
2023-04-09T20:53:53.203Z,9.80
2023-04-09T20:56:33.162Z,9.80
2023-04-09T20:59:09.699Z,9.70
2023-04-09T21:01:44.593Z,9.70
2023-04-09T21:04:16.917Z,9.70
2023-04-09T21:06:51.516Z,9.70
2023-04-09T21:09:27.181Z,9.70
2023-04-09T21:12:03.967Z,9.70
2023-04-09T21:14:37.105Z,9.60
2023-04-09T21:17:12.836Z,9.60
2023-04-09T21:19:45.544Z,9.60
2023-04-09T21:22:24.857Z,9.50
2023-04-09T21:24:59.440Z,9.50
2023-04-09T21:27:34.337Z,9.40
2023-04-09T21:30:08.791Z,9.40
2023-04-09T21:32:41.406Z,9.40
2023-04-09T21:35:17.920Z,9.30
2023-04-09T21:37:50.133Z,9.30
2023-04-09T21:40:29.690Z,9.30
2023-04-09T21:43:09.921Z,9.30
2023-04-09T21:45:43.946Z,9.30
2023-04-09T21:48:19.015Z,9.30
2023-04-09T21:50:51.644Z,9.30
2023-04-09T21:53:24.632Z,9.20
2023-04-09T21:55:57.570Z,9.20
2023-04-09T21:58:34.534Z,9.20
2023-04-09T22:01:19.218Z,9.20
2023-04-09T22:04:02.337Z,9.20
2023-04-09T22:06:35.027Z,9.10
2023-04-09T22:09:07.805Z,9.10
2023-04-09T22:11:43.103Z,9.10
2023-04-09T22:14:18.771Z,9.10
2023-04-09T22:16:54.814Z,9.10
2023-04-09T22:19:27.385Z,9.10
2023-04-09T22:22:01.739Z,9.10
2023-04-09T22:24:35.232Z,9.00
2023-04-09T22:27:07.988Z,9.00
2023-04-09T22:29:45.213Z,9.00
2023-04-09T22:32:19.408Z,9.00
2023-04-09T22:34:52.684Z,9.00
2023-04-09T22:37:26.285Z,8.90
2023-04-09T22:40:02.015Z,8.90
2023-04-09T22:42:34.818Z,8.90
2023-04-09T22:45:13.628Z,8.80
2023-04-09T22:47:49.600Z,8.80
2023-04-09T22:50:22.993Z,8.80
2023-04-09T22:52:56.082Z,8.80
2023-04-09T22:55:29.509Z,8.80
2023-04-09T22:58:03.984Z,8.70
2023-04-09T23:00:43.806Z,8.70
2023-04-09T23:03:20.189Z,8.60
2023-04-09T23:05:57.110Z,8.60
2023-04-09T23:08:35.415Z,8.60
2023-04-09T23:11:09.146Z,8.60
2023-04-09T23:13:45.514Z,8.60
2023-04-09T23:16:21.273Z,8.60
2023-04-09T23:18:56.754Z,8.60
2023-04-09T23:21:29.288Z,8.50
2023-04-09T23:24:02.712Z,8.50
2023-04-09T23:26:34.792Z,8.50
2023-04-09T23:29:09.723Z,8.50
2023-04-09T23:31:44.531Z,8.50
2023-04-09T23:34:19.061Z,8.40
2023-04-09T23:36:51.200Z,8.40
2023-04-09T23:39:26.766Z,8.30
2023-04-09T23:41:59.080Z,8.30
2023-04-09T23:44:32.084Z,8.30
2023-04-09T23:47:09.534Z,8.20
2023-04-09T23:49:45.482Z,8.20
2023-04-09T23:52:19.909Z,8.10
2023-04-09T23:54:55.017Z,8.10
2023-04-09T23:57:29.378Z,8.10
